sensor_id;sensor_type;location;lat;lon;timestamp;pressure;altitude;pressure_sealevel;temperature;humidity
5996;BME280;3026;53.612;7.278;2023-03-11T00:01:41;100177.19;;;1.56;100.00
5996;BME280;3026;53.612;7.278;2023-03-11T00:04:08;100186.97;;;1.57;100.00
5996;BME280;3026;53.612;7.278;2023-03-11T00:06:35;100178.91;;;1.57;100.00
5996;BME280;3026;53.612;7.278;2023-03-11T00:09:04;100201.84;;;1.61;100.00
5996;BME280;3026;53.612;7.278;2023-03-11T00:11:31;100205.50;;;1.60;100.00
5996;BME280;3026;53.612;7.278;2023-03-11T00:13:58;100207.47;;;1.58;100.00
5996;BME280;3026;53.612;7.278;2023-03-11T00:16:24;100209.91;;;1.61;100.00
5996;BME280;3026;53.612;7.278;2023-03-11T00:18:51;100220.66;;;1.61;100.00
5996;BME280;3026;53.612;7.278;2023-03-11T00:21:19;100219.06;;;1.59;100.00
5996;BME280;3026;53.612;7.278;2023-03-11T00:23:46;100218.50;;;1.55;100.00
5996;BME280;3026;53.612;7.278;2023-03-11T00:26:14;100236.06;;;1.59;100.00
5996;BME280;3026;53.612;7.278;2023-03-11T00:28:41;100247.06;;;1.56;100.00
5996;BME280;3026;53.612;7.278;2023-03-11T00:31:10;100249.03;;;1.54;100.00
5996;BME280;3026;53.612;7.278;2023-03-11T00:33:37;100247.19;;;1.55;100.00
5996;BME280;3026;53.612;7.278;2023-03-11T00:36:05;100250.75;;;1.55;100.00
5996;BME280;3026;53.612;7.278;2023-03-11T00:38:32;100246.47;;;1.53;100.00
5996;BME280;3026;53.612;7.278;2023-03-11T00:40:59;100263.19;;;1.56;100.00
5996;BME280;3026;53.612;7.278;2023-03-11T00:43:27;100261.47;;;1.55;100.00
5996;BME280;3026;53.612;7.278;2023-03-11T00:45:54;100270.53;;;1.54;100.00
5996;BME280;3026;53.612;7.278;2023-03-11T00:48:21;100260.28;;;1.48;100.00
5996;BME280;3026;53.612;7.278;2023-03-11T00:50:48;100256.63;;;1.49;100.00
5996;BME280;3026;53.612;7.278;2023-03-11T00:53:15;100272.50;;;1.52;100.00
5996;BME280;3026;53.612;7.278;2023-03-11T00:55:42;100275.91;;;1.54;100.00
5996;BME280;3026;53.612;7.278;2023-03-11T00:58:10;100281.28;;;1.54;100.00
5996;BME280;3026;53.612;7.278;2023-03-11T01:00:38;100282.13;;;1.55;100.00
5996;BME280;3026;53.612;7.278;2023-03-11T01:03:06;100285.81;;;1.54;100.00
5996;BME280;3026;53.612;7.278;2023-03-11T01:05:33;100291.31;;;1.52;100.00
5996;BME280;3026;53.612;7.278;2023-03-11T01:08:01;100301.91;;;1.54;100.00
5996;BME280;3026;53.612;7.278;2023-03-11T01:10:30;100315.22;;;1.55;100.00
5996;BME280;3026;53.612;7.278;2023-03-11T01:12:57;100317.66;;;1.58;100.00
5996;BME280;3026;53.612;7.278;2023-03-11T01:15:26;100321.19;;;1.59;100.00
5996;BME280;3026;53.612;7.278;2023-03-11T01:17:55;100324.00;;;1.57;100.00
5996;BME280;3026;53.612;7.278;2023-03-11T01:20:22;100325.00;;;1.56;100.00
5996;BME280;3026;53.612;7.278;2023-03-11T01:22:49;100340.13;;;1.57;100.00
5996;BME280;3026;53.612;7.278;2023-03-11T01:25:17;100340.13;;;1.57;100.00
5996;BME280;3026;53.612;7.278;2023-03-11T01:27:45;100336.72;;;1.55;100.00
5996;BME280;3026;53.612;7.278;2023-03-11T01:30:13;100349.16;;;1.56;100.00
5996;BME280;3026;53.612;7.278;2023-03-11T01:32:41;100352.84;;;1.55;100.00
5996;BME280;3026;53.612;7.278;2023-03-11T01:35:11;100349.16;;;1.56;100.00
5996;BME280;3026;53.612;7.278;2023-03-11T01:37:38;100352.84;;;1.55;100.00
5996;BME280;3026;53.612;7.278;2023-03-11T01:40:06;100356.38;;;1.56;100.00
5996;BME280;3026;53.612;7.278;2023-03-11T01:42:34;100358.22;;;1.55;100.00
5996;BME280;3026;53.612;7.278;2023-03-11T01:45:01;100359.91;;;1.56;100.00
5996;BME280;3026;53.612;7.278;2023-03-11T01:47:37;100368.69;;;1.58;100.00
5996;BME280;3026;53.612;7.278;2023-03-11T01:50:08;100367.84;;;1.58;100.00
5996;BME280;3026;53.612;7.278;2023-03-11T01:52:39;100368.69;;;1.58;100.00
5996;BME280;3026;53.612;7.278;2023-03-11T01:55:07;100366.72;;;1.60;100.00
5996;BME280;3026;53.612;7.278;2023-03-11T01:57:35;100376.63;;;1.60;100.00
5996;BME280;3026;53.612;7.278;2023-03-11T02:00:07;100367.00;;;1.57;100.00
5996;BME280;3026;53.612;7.278;2023-03-11T02:02:36;100376.41;;;1.63;100.00
5996;BME280;3026;53.612;7.278;2023-03-11T02:05:06;100377.25;;;1.63;100.00
5996;BME280;3026;53.612;7.278;2023-03-11T02:07:33;100364.19;;;1.59;100.00
5996;BME280;3026;53.612;7.278;2023-03-11T02:10:02;100384.56;;;1.61;100.00
5996;BME280;3026;53.612;7.278;2023-03-11T02:12:34;100377.25;;;1.63;100.00
5996;BME280;3026;53.612;7.278;2023-03-11T02:15:03;100383.63;;;1.62;100.00
5996;BME280;3026;53.612;7.278;2023-03-11T02:17:31;100378.97;;;1.64;100.00
5996;BME280;3026;53.612;7.278;2023-03-11T02:20:07;100386.03;;;1.65;100.00
5996;BME280;3026;53.612;7.278;2023-03-11T02:22:41;100382.38;;;1.66;100.00
5996;BME280;3026;53.612;7.278;2023-03-11T02:25:15;100382.63;;;1.63;100.00
5996;BME280;3026;53.612;7.278;2023-03-11T02:27:48;100388.00;;;1.63;100.00
5996;BME280;3026;53.612;7.278;2023-03-11T02:30:16;100394.81;;;1.67;100.00
5996;BME280;3026;53.612;7.278;2023-03-11T02:32:44;100398.50;;;1.66;100.00
5996;BME280;3026;53.612;7.278;2023-03-11T02:35:13;100393.13;;;1.66;100.00
5996;BME280;3026;53.612;7.278;2023-03-11T02:37:43;100409.84;;;1.70;100.00
5996;BME280;3026;53.612;7.278;2023-03-11T02:40:40;100394.81;;;1.67;100.00
5996;BME280;3026;53.612;7.278;2023-03-11T02:43:12;100394.81;;;1.67;100.00
5996;BME280;3026;53.612;7.278;2023-03-11T02:45:41;100398.22;;;1.69;100.00
5996;BME280;3026;53.612;7.278;2023-03-11T02:48:10;100403.59;;;1.69;100.00
5996;BME280;3026;53.612;7.278;2023-03-11T02:50:37;100403.34;;;1.72;100.00
5996;BME280;3026;53.612;7.278;2023-03-11T02:53:06;100399.94;;;1.70;100.00
5996;BME280;3026;53.612;7.278;2023-03-11T02:55:34;100399.94;;;1.70;100.00
5996;BME280;3026;53.612;7.278;2023-03-11T02:58:01;100411.41;;;1.72;100.00
5996;BME280;3026;53.612;7.278;2023-03-11T03:00:29;100407.00;;;1.71;100.00
5996;BME280;3026;53.612;7.278;2023-03-11T03:02:56;100416.31;;;1.67;100.00
5996;BME280;3026;53.612;7.278;2023-03-11T03:05:23;100418.03;;;1.68;100.00
5996;BME280;3026;53.612;7.278;2023-03-11T03:07:50;100428.19;;;1.65;100.00
5996;BME280;3026;53.612;7.278;2023-03-11T03:10:19;100423.66;;;1.65;100.00
5996;BME280;3026;53.612;7.278;2023-03-11T03:12:46;100433.56;;;1.65;100.00
5996;BME280;3026;53.612;7.278;2023-03-11T03:15:13;100431.00;;;1.63;100.00
5996;BME280;3026;53.612;7.278;2023-03-11T03:17:42;100431.00;;;1.63;100.00
5996;BME280;3026;53.612;7.278;2023-03-11T03:20:10;100435.88;;;1.58;100.00
5996;BME280;3026;53.612;7.278;2023-03-11T03:22:38;100447.13;;;1.63;100.00
5996;BME280;3026;53.612;7.278;2023-03-11T03:25:06;100448.84;;;1.64;100.00
5996;BME280;3026;53.612;7.278;2023-03-11T03:27:33;100445.44;;;1.62;100.00
5996;BME280;3026;53.612;7.278;2023-03-11T03:30:00;100449.81;;;1.63;100.00
5996;BME280;3026;53.612;7.278;2023-03-11T03:32:28;100449.06;;;1.61;100.00
5996;BME280;3026;53.612;7.278;2023-03-11T03:34:56;100452.72;;;1.60;100.00
5996;BME280;3026;53.612;7.278;2023-03-11T03:37:24;100448.47;;;1.58;100.00
5996;BME280;3026;53.612;7.278;2023-03-11T03:39:52;100457.38;;;1.58;100.00
5996;BME280;3026;53.612;7.278;2023-03-11T03:42:20;100472.78;;;1.56;100.00
5996;BME280;3026;53.612;7.278;2023-03-11T03:44:49;100472.06;;;1.54;100.00
5996;BME280;3026;53.612;7.278;2023-03-11T03:47:16;100469.63;;;1.51;100.00
5996;BME280;3026;53.612;7.278;2023-03-11T03:49:43;100473.03;;;1.53;100.00
5996;BME280;3026;53.612;7.278;2023-03-11T03:52:12;100479.38;;;1.52;100.00
5996;BME280;3026;53.612;7.278;2023-03-11T03:54:39;100484.00;;;1.50;100.00
5996;BME280;3026;53.612;7.278;2023-03-11T03:57:06;100482.31;;;1.49;100.00
5996;BME280;3026;53.612;7.278;2023-03-11T03:59:33;100482.31;;;1.49;100.00
5996;BME280;3026;53.612;7.278;2023-03-11T04:01:59;100486.81;;;1.49;100.00
5996;BME280;3026;53.612;7.278;2023-03-11T04:04:26;100498.41;;;1.49;100.00
5996;BME280;3026;53.612;7.278;2023-03-11T04:06:53;100497.56;;;1.49;100.00
5996;BME280;3026;53.612;7.278;2023-03-11T04:09:21;100495.00;;;1.47;100.00
5996;BME280;3026;53.612;7.278;2023-03-11T04:11:48;100495.00;;;1.47;100.00
5996;BME280;3026;53.612;7.278;2023-03-11T04:14:15;100497.81;;;1.45;100.00
5996;BME280;3026;53.612;7.278;2023-03-11T04:16:42;100496.97;;;1.45;100.00
5996;BME280;3026;53.612;7.278;2023-03-11T04:19:09;100500.63;;;1.44;100.00
5996;BME280;3026;53.612;7.278;2023-03-11T04:21:36;100500.75;;;1.42;100.00
5996;BME280;3026;53.612;7.278;2023-03-11T04:24:03;100502.09;;;1.37;100.00
5996;BME280;3026;53.612;7.278;2023-03-11T04:26:31;100513.56;;;1.39;100.00
5996;BME280;3026;53.612;7.278;2023-03-11T04:28:58;100510.88;;;1.39;100.00
5996;BME280;3026;53.612;7.278;2023-03-11T04:31:24;100508.44;;;1.36;100.00
5996;BME280;3026;53.612;7.278;2023-03-11T04:33:51;100517.22;;;1.38;100.00
5996;BME280;3026;53.612;7.278;2023-03-11T04:36:19;100517.47;;;1.35;100.00
5996;BME280;3026;53.612;7.278;2023-03-11T04:38:45;100512.09;;;1.35;100.00
5996;BME280;3026;53.612;7.278;2023-03-11T04:41:12;100518.59;;;1.32;100.00
5996;BME280;3026;53.612;7.278;2023-03-11T04:43:40;100521.38;;;1.31;100.00
5996;BME280;3026;53.612;7.278;2023-03-11T04:46:07;100528.72;;;1.29;100.00
5996;BME280;3026;53.612;7.278;2023-03-11T04:48:34;100526.03;;;1.29;100.00
5996;BME280;3026;53.612;7.278;2023-03-11T04:51:01;100535.81;;;1.30;100.00
5996;BME280;3026;53.612;7.278;2023-03-11T04:53:28;100532.38;;;1.28;100.00
5996;BME280;3026;53.612;7.278;2023-03-11T04:55:54;100542.38;;;1.26;100.00
5996;BME280;3026;53.612;7.278;2023-03-11T04:58:21;100541.63;;;1.24;100.00
5996;BME280;3026;53.612;7.278;2023-03-11T05:00:50;100542.75;;;1.21;100.00
5996;BME280;3026;53.612;7.278;2023-03-11T05:03:17;100548.00;;;1.23;100.00
5996;BME280;3026;53.612;7.278;2023-03-11T05:05:44;100551.53;;;1.23;100.00
5996;BME280;3026;53.612;7.278;2023-03-11T05:08:11;100558.59;;;1.24;100.00
5996;BME280;3026;53.612;7.278;2023-03-11T05:10:38;100553.13;;;1.26;100.00
5996;BME280;3026;53.612;7.278;2023-03-11T05:13:06;100555.81;;;1.26;100.00
5996;BME280;3026;53.612;7.278;2023-03-11T05:15:33;100556.78;;;1.25;100.00
5996;BME280;3026;53.612;7.278;2023-03-11T05:18:02;100555.06;;;1.24;100.00
5996;BME280;3026;53.612;7.278;2023-03-11T05:20:29;100550.31;;;1.16;100.00
5996;BME280;3026;53.612;7.278;2023-03-11T05:22:56;100552.88;;;1.17;100.00
5996;BME280;3026;53.612;7.278;2023-03-11T05:25:23;100555.91;;;1.13;100.00
5996;BME280;3026;53.612;7.278;2023-03-11T05:27:50;100555.28;;;1.09;100.00
5996;BME280;3026;53.612;7.278;2023-03-11T05:30:17;100562.63;;;1.07;100.00
5996;BME280;3026;53.612;7.278;2023-03-11T05:32:44;100557.50;;;1.04;100.00
5996;BME280;3026;53.612;7.278;2023-03-11T05:35:12;100569.94;;;1.05;100.00
5996;BME280;3026;53.612;7.278;2023-03-11T05:37:39;100567.25;;;1.05;100.00
5996;BME280;3026;53.612;7.278;2023-03-11T05:40:08;100565.31;;;1.07;100.00
5996;BME280;3026;53.612;7.278;2023-03-11T05:42:35;100568.00;;;1.07;100.00
5996;BME280;3026;53.612;7.278;2023-03-11T05:45:02;100572.38;;;1.08;100.00
5996;BME280;3026;53.612;7.278;2023-03-11T05:47:29;100569.69;;;1.08;100.00
5996;BME280;3026;53.612;7.278;2023-03-11T05:49:56;100577.03;;;1.06;100.00
5996;BME280;3026;53.612;7.278;2023-03-11T05:52:24;100568.44;;;1.01;100.00
5996;BME280;3026;53.612;7.278;2023-03-11T05:54:52;100579.81;;;1.05;100.00
5996;BME280;3026;53.612;7.278;2023-03-11T05:57:18;100586.06;;;1.05;100.00
5996;BME280;3026;53.612;7.278;2023-03-11T05:59:45;100593.13;;;1.06;100.00
5996;BME280;3026;53.612;7.278;2023-03-11T06:02:12;100593.13;;;1.06;100.00
5996;BME280;3026;53.612;7.278;2023-03-11T06:04:39;100600.22;;;1.07;100.00
5996;BME280;3026;53.612;7.278;2023-03-11T06:07:06;100601.91;;;1.08;100.00
5996;BME280;3026;53.612;7.278;2023-03-11T06:09:34;100598.25;;;1.09;100.00
5996;BME280;3026;53.612;7.278;2023-03-11T06:12:01;100598.25;;;1.09;100.00
5996;BME280;3026;53.612;7.278;2023-03-11T06:14:28;100603.88;;;1.06;100.00
5996;BME280;3026;53.612;7.278;2023-03-11T06:16:56;100614.38;;;1.09;100.00
5996;BME280;3026;53.612;7.278;2023-03-11T06:19:23;100623.16;;;1.11;100.00
5996;BME280;3026;53.612;7.278;2023-03-11T06:21:50;100624.88;;;1.12;100.00
5996;BME280;3026;53.612;7.278;2023-03-11T06:24:16;100629.38;;;1.12;100.00
5996;BME280;3026;53.612;7.278;2023-03-11T06:26:45;100632.81;;;1.14;100.00
5996;BME280;3026;53.612;7.278;2023-03-11T06:29:13;100630.00;;;1.15;100.00
5996;BME280;3026;53.612;7.278;2023-03-11T06:31:40;100635.16;;;1.19;100.00
5996;BME280;3026;53.612;7.278;2023-03-11T06:34:08;100639.44;;;1.21;100.00
5996;BME280;3026;53.612;7.278;2023-03-11T06:36:35;100636.00;;;1.19;100.00
5996;BME280;3026;53.612;7.278;2023-03-11T06:39:03;100649.31;;;1.21;100.00
5996;BME280;3026;53.612;7.278;2023-03-11T06:41:32;100647.59;;;1.20;100.00
5996;BME280;3026;53.612;7.278;2023-03-11T06:44:00;100644.91;;;1.20;100.00
5996;BME280;3026;53.612;7.278;2023-03-11T06:46:28;100652.00;;;1.21;100.00
5996;BME280;3026;53.612;7.278;2023-03-11T06:48:56;100658.09;;;1.23;100.00
5996;BME280;3026;53.612;7.278;2023-03-11T06:51:23;100670.31;;;1.27;100.00
5996;BME280;3026;53.612;7.278;2023-03-11T06:53:51;100663.03;;;1.29;100.00
5996;BME280;3026;53.612;7.278;2023-03-11T06:56:19;100664.50;;;1.33;100.00
5996;BME280;3026;53.612;7.278;2023-03-11T06:58:47;100670.47;;;1.36;100.00
5996;BME280;3026;53.612;7.278;2023-03-11T07:01:16;100669.38;;;1.39;100.00
5996;BME280;3026;53.612;7.278;2023-03-11T07:03:45;100676.25;;;1.43;100.00
5996;BME280;3026;53.612;7.278;2023-03-11T07:06:13;100676.97;;;1.45;100.00
5996;BME280;3026;53.612;7.278;2023-03-11T07:08:40;100683.09;;;1.47;100.00
5996;BME280;3026;53.612;7.278;2023-03-11T07:11:08;100684.59;;;1.51;100.00
5996;BME280;3026;53.612;7.278;2023-03-11T07:13:37;100684.34;;;1.54;100.00
5996;BME280;3026;53.612;7.278;2023-03-11T07:16:06;100689.22;;;1.60;100.00
5996;BME280;3026;53.612;7.278;2023-03-11T07:18:35;100698.78;;;1.64;100.00
5996;BME280;3026;53.612;7.278;2023-03-11T07:21:03;100705.38;;;1.71;100.00
5996;BME280;3026;53.612;7.278;2023-03-11T07:23:31;100709.56;;;1.75;100.00
5996;BME280;3026;53.612;7.278;2023-03-11T07:25:58;100703.94;;;1.79;100.00
5996;BME280;3026;53.612;7.278;2023-03-11T07:28:26;100710.78;;;1.83;100.00
5996;BME280;3026;53.612;7.278;2023-03-11T07:30:53;100714.69;;;1.90;100.00
5996;BME280;3026;53.612;7.278;2023-03-11T07:33:21;100717.75;;;1.96;100.00
5996;BME280;3026;53.612;7.278;2023-03-11T07:35:50;100723.75;;;2.00;100.00
5996;BME280;3026;53.612;7.278;2023-03-11T07:38:17;100723.25;;;2.06;100.00
5996;BME280;3026;53.612;7.278;2023-03-11T07:40:44;100721.09;;;2.11;100.00
5996;BME280;3026;53.612;7.278;2023-03-11T07:43:11;100738.69;;;2.15;100.00
5996;BME280;3026;53.612;7.278;2023-03-11T07:45:37;100730.00;;;2.23;100.00
5996;BME280;3026;53.612;7.278;2023-03-11T07:48:05;100730.63;;;2.26;100.00
5996;BME280;3026;53.612;7.278;2023-03-11T07:50:31;100744.31;;;2.34;100.00
5996;BME280;3026;53.612;7.278;2023-03-11T07:53:00;100736.72;;;2.40;100.00
5996;BME280;3026;53.612;7.278;2023-03-11T07:55:26;100752.16;;;2.49;100.00
5996;BME280;3026;53.612;7.278;2023-03-11T07:57:53;100757.91;;;2.55;100.00
5996;BME280;3026;53.612;7.278;2023-03-11T08:00:21;100741.75;;;2.55;100.00
5996;BME280;3026;53.612;7.278;2023-03-11T08:02:48;100756.28;;;2.64;100.00
5996;BME280;3026;53.612;7.278;2023-03-11T08:05:15;100756.41;;;2.74;100.00
5996;BME280;3026;53.612;7.278;2023-03-11T08:07:43;100758.47;;;2.81;100.00
5996;BME280;3026;53.612;7.278;2023-03-11T08:10:11;100770.22;;;2.91;100.00
5996;BME280;3026;53.612;7.278;2023-03-11T08:12:38;100764.06;;;3.01;100.00
5996;BME280;3026;53.612;7.278;2023-03-11T08:15:06;100773.09;;;3.11;100.00
5996;BME280;3026;53.612;7.278;2023-03-11T08:17:33;100777.00;;;3.18;100.00
5996;BME280;3026;53.612;7.278;2023-03-11T08:20:00;100775.25;;;3.28;100.00
5996;BME280;3026;53.612;7.278;2023-03-11T08:22:28;100781.22;;;3.43;100.00
5996;BME280;3026;53.612;7.278;2023-03-11T08:24:58;100787.69;;;3.51;100.00
5996;BME280;3026;53.612;7.278;2023-03-11T08:27:29;100778.81;;;3.61;100.00
5996;BME280;3026;53.612;7.278;2023-03-11T08:29:56;100778.03;;;3.70;100.00
5996;BME280;3026;53.612;7.278;2023-03-11T08:32:23;100788.97;;;3.89;100.00
5996;BME280;3026;53.612;7.278;2023-03-11T08:34:50;100782.78;;;3.98;100.00
5996;BME280;3026;53.612;7.278;2023-03-11T08:37:17;100789.09;;;4.08;100.00
5996;BME280;3026;53.612;7.278;2023-03-11T08:39:44;100786.06;;;4.23;100.00
5996;BME280;3026;53.612;7.278;2023-03-11T08:42:11;100781.59;;;4.33;100.00
5996;BME280;3026;53.612;7.278;2023-03-11T08:44:39;100797.88;;;4.52;100.00
5996;BME280;3026;53.612;7.278;2023-03-11T08:47:06;100793.69;;;4.69;100.00
5996;BME280;3026;53.612;7.278;2023-03-11T08:49:33;100793.44;;;4.82;100.00
5996;BME280;3026;53.612;7.278;2023-03-11T08:52:01;100808.28;;;4.97;100.00
5996;BME280;3026;53.612;7.278;2023-03-11T08:54:28;100794.94;;;5.05;100.00
5996;BME280;3026;53.612;7.278;2023-03-11T08:56:54;100803.22;;;5.13;100.00
5996;BME280;3026;53.612;7.278;2023-03-11T08:59:21;100800.09;;;5.18;100.00
5996;BME280;3026;53.612;7.278;2023-03-11T09:01:51;100801.53;;;5.32;100.00
5996;BME280;3026;53.612;7.278;2023-03-11T09:04:17;100802.44;;;5.61;100.00
5996;BME280;3026;53.612;7.278;2023-03-11T09:06:44;100797.59;;;5.74;100.00
5996;BME280;3026;53.612;7.278;2023-03-11T09:09:13;100808.72;;;5.71;100.00
5996;BME280;3026;53.612;7.278;2023-03-11T09:11:41;100810.69;;;5.89;100.00
5996;BME280;3026;53.612;7.278;2023-03-11T09:14:08;100799.88;;;5.89;100.00
5996;BME280;3026;53.612;7.278;2023-03-11T09:16:39;100807.59;;;6.03;100.00
5996;BME280;3026;53.612;7.278;2023-03-11T09:19:13;100809.25;;;6.23;100.00
5996;BME280;3026;53.612;7.278;2023-03-11T09:21:41;100816.13;;;6.27;100.00
5996;BME280;3026;53.612;7.278;2023-03-11T09:27:03;100803.94;;;6.51;100.00
5996;BME280;3026;53.612;7.278;2023-03-11T09:29:32;100809.75;;;6.56;100.00
5996;BME280;3026;53.612;7.278;2023-03-11T09:40:01;100803.19;;;7.23;100.00
5996;BME280;3026;53.612;7.278;2023-03-11T09:43:15;100800.84;;;7.28;100.00
5996;BME280;3026;53.612;7.278;2023-03-11T09:46:14;100795.72;;;7.25;100.00
5996;BME280;3026;53.612;7.278;2023-03-11T09:49:13;100797.13;;;7.29;100.00
5996;BME280;3026;53.612;7.278;2023-03-11T09:52:05;100807.97;;;7.29;100.00
5996;BME280;3026;53.612;7.278;2023-03-11T09:55:24;100810.78;;;7.37;100.00
5996;BME280;3026;53.612;7.278;2023-03-11T10:00:41;100807.91;;;7.21;100.00
5996;BME280;3026;53.612;7.278;2023-03-11T10:03:38;100808.97;;;7.28;100.00
5996;BME280;3026;53.612;7.278;2023-03-11T10:06:15;100812.81;;;7.35;100.00
5996;BME280;3026;53.612;7.278;2023-03-11T10:08:50;100816.53;;;7.34;100.00
5996;BME280;3026;53.612;7.278;2023-03-11T10:11:48;100820.94;;;7.35;100.00
5996;BME280;3026;53.612;7.278;2023-03-11T10:14:32;100824.19;;;7.39;100.00
5996;BME280;3026;53.612;7.278;2023-03-11T10:17:12;100818.50;;;7.59;100.00
5996;BME280;3026;53.612;7.278;2023-03-11T10:19:44;100822.25;;;7.76;100.00
5996;BME280;3026;53.612;7.278;2023-03-11T10:22:18;100822.84;;;7.70;100.00
5996;BME280;3026;53.612;7.278;2023-03-11T10:24:59;100818.75;;;7.66;100.00
5996;BME280;3026;53.612;7.278;2023-03-11T10:27:34;100814.38;;;7.55;100.00
5996;BME280;3026;53.612;7.278;2023-03-11T10:30:08;100823.16;;;7.67;100.00
5996;BME280;3026;53.612;7.278;2023-03-11T10:32:43;100818.97;;;7.73;100.00
5996;BME280;3026;53.612;7.278;2023-03-11T10:35:18;100818.41;;;7.87;100.00
5996;BME280;3026;53.612;7.278;2023-03-11T10:37:51;100820.13;;;7.88;100.00
5996;BME280;3026;53.612;7.278;2023-03-11T10:40:25;100819.91;;;7.81;100.00
5996;BME280;3026;53.612;7.278;2023-03-11T10:42:56;100810.66;;;7.92;100.00
5996;BME280;3026;53.612;7.278;2023-03-11T10:45:24;100816.00;;;7.84;100.00
5996;BME280;3026;53.612;7.278;2023-03-11T10:47:55;100817.34;;;7.80;100.00
5996;BME280;3026;53.612;7.278;2023-03-11T10:50:22;100821.38;;;7.76;100.00
5996;BME280;3026;53.612;7.278;2023-03-11T10:53:06;100817.78;;;7.57;100.00
5996;BME280;3026;53.612;7.278;2023-03-11T10:55:34;100815.31;;;7.46;100.00
5996;BME280;3026;53.612;7.278;2023-03-11T10:58:11;100814.81;;;7.33;100.00
5996;BME280;3026;53.612;7.278;2023-03-11T11:00:38;100820.13;;;7.07;100.00
5996;BME280;3026;53.612;7.278;2023-03-11T11:03:12;100818.44;;;6.96;100.00
5996;BME280;3026;53.612;7.278;2023-03-11T11:05:42;100838.91;;;6.81;100.00
5996;BME280;3026;53.612;7.278;2023-03-11T11:08:12;100835.13;;;6.64;100.00
5996;BME280;3026;53.612;7.278;2023-03-11T11:10:49;100830.88;;;6.52;100.00
5996;BME280;3026;53.612;7.278;2023-03-11T11:13:20;100830.91;;;6.42;100.00
5996;BME280;3026;53.612;7.278;2023-03-11T11:15:55;100821.47;;;6.47;100.00
5996;BME280;3026;53.612;7.278;2023-03-11T11:18:25;100826.84;;;6.66;100.00
5996;BME280;3026;53.612;7.278;2023-03-11T11:20:55;100828.38;;;7.06;100.00
5996;BME280;3026;53.612;7.278;2023-03-11T11:23:25;100816.56;;;7.24;100.00
5996;BME280;3026;53.612;7.278;2023-03-11T11:25:58;100831.09;;;7.33;100.00
5996;BME280;3026;53.612;7.278;2023-03-11T11:28:26;100817.63;;;7.41;100.00
5996;BME280;3026;53.612;7.278;2023-03-11T11:30:55;100826.94;;;7.56;100.00
5996;BME280;3026;53.612;7.278;2023-03-11T11:33:26;100831.34;;;7.75;100.00
5996;BME280;3026;53.612;7.278;2023-03-11T11:35:55;100826.19;;;7.82;100.00
5996;BME280;3026;53.612;7.278;2023-03-11T11:38:24;100830.59;;;7.83;100.00
5996;BME280;3026;53.612;7.278;2023-03-11T11:40:54;100822.13;;;7.86;100.00
5996;BME280;3026;53.612;7.278;2023-03-11T11:43:29;100821.84;;;7.89;100.00
5996;BME280;3026;53.612;7.278;2023-03-11T11:46:00;100822.81;;;8.06;100.00
5996;BME280;3026;53.612;7.278;2023-03-11T11:48:33;100817.63;;;8.12;100.00
5996;BME280;3026;53.612;7.278;2023-03-11T11:51:11;100820.41;;;8.20;100.00
5996;BME280;3026;53.612;7.278;2023-03-11T11:53:43;100823.44;;;8.35;100.00
5996;BME280;3026;53.612;7.278;2023-03-11T11:56:12;100820.88;;;8.34;100.00
5996;BME280;3026;53.612;7.278;2023-03-11T11:58:40;100814.44;;;8.35;100.00
5996;BME280;3026;53.612;7.278;2023-03-11T12:01:14;100822.69;;;8.51;100.00
5996;BME280;3026;53.612;7.278;2023-03-11T12:04:11;100821.63;;;8.44;100.00
5996;BME280;3026;53.612;7.278;2023-03-11T12:06:46;100829.84;;;8.52;100.00
5996;BME280;3026;53.612;7.278;2023-03-11T12:09:24;100824.06;;;8.55;100.00
5996;BME280;3026;53.612;7.278;2023-03-11T12:11:56;100832.72;;;8.33;100.00
5996;BME280;3026;53.612;7.278;2023-03-11T12:14:34;100826.59;;;8.31;100.00
5996;BME280;3026;53.612;7.278;2023-03-11T12:17:03;100825.63;;;8.14;100.00
5996;BME280;3026;53.612;7.278;2023-03-11T12:19:35;100815.84;;;8.03;100.00
5996;BME280;3026;53.612;7.278;2023-03-11T12:25:19;100820.63;;;8.09;100.00
5996;BME280;3026;53.612;7.278;2023-03-11T12:27:50;100819.09;;;8.25;100.00
5996;BME280;3026;53.612;7.278;2023-03-11T12:30:22;100826.00;;;8.37;100.00
5996;BME280;3026;53.612;7.278;2023-03-11T12:32:55;100819.91;;;8.43;100.00
5996;BME280;3026;53.612;7.278;2023-03-11T12:35:24;100827.53;;;8.39;100.00
5996;BME280;3026;53.612;7.278;2023-03-11T12:37:58;100824.34;;;8.44;100.00
5996;BME280;3026;53.612;7.278;2023-03-11T12:40:48;100821.00;;;8.50;100.00
5996;BME280;3026;53.612;7.278;2023-03-11T12:46:13;100820.03;;;8.15;100.00
5996;BME280;3026;53.612;7.278;2023-03-11T12:48:42;100823.22;;;7.93;100.00
5996;BME280;3026;53.612;7.278;2023-03-11T12:51:38;100830.50;;;7.75;100.00
5996;BME280;3026;53.612;7.278;2023-03-11T12:54:21;100830.34;;;7.58;100.00
5996;BME280;3026;53.612;7.278;2023-03-11T12:56:52;100831.00;;;7.88;100.00
5996;BME280;3026;53.612;7.278;2023-03-11T13:02:34;100829.72;;;8.62;100.00
5996;BME280;3026;53.612;7.278;2023-03-11T13:05:11;100828.34;;;8.84;100.00
5996;BME280;3026;53.612;7.278;2023-03-11T13:07:45;100825.13;;;8.88;100.00
5996;BME280;3026;53.612;7.278;2023-03-11T13:10:34;100832.59;;;8.86;100.00
5996;BME280;3026;53.612;7.278;2023-03-11T13:13:02;100834.88;;;8.99;100.00
5996;BME280;3026;53.612;7.278;2023-03-11T13:15:48;100828.03;;;9.29;100.00
5996;BME280;3026;53.612;7.278;2023-03-11T13:18:21;100836.06;;;9.47;100.00
5996;BME280;3026;53.612;7.278;2023-03-11T13:20:51;100830.19;;;9.17;100.00
5996;BME280;3026;53.612;7.278;2023-03-11T13:23:30;100853.81;;;8.83;100.00
5996;BME280;3026;53.612;7.278;2023-03-11T13:26:26;100869.59;;;8.17;100.00
5996;BME280;3026;53.612;7.278;2023-03-11T13:31:53;100878.94;;;6.97;100.00
5996;BME280;3026;53.612;7.278;2023-03-11T13:34:37;100878.66;;;6.43;100.00
5996;BME280;3026;53.612;7.278;2023-03-11T13:37:18;100882.25;;;6.15;100.00
5996;BME280;3026;53.612;7.278;2023-03-11T13:42:43;100879.63;;;5.84;100.00
5996;BME280;3026;53.612;7.278;2023-03-11T13:45:21;100867.94;;;5.74;100.00
5996;BME280;3026;53.612;7.278;2023-03-11T13:47:52;100863.94;;;5.59;100.00
5996;BME280;3026;53.612;7.278;2023-03-11T13:50:27;100851.97;;;5.52;100.00
5996;BME280;3026;53.612;7.278;2023-03-11T13:52:55;100851.41;;;5.58;100.00
5996;BME280;3026;53.612;7.278;2023-03-11T13:55:29;100839.47;;;5.90;100.00